createdAt,value
2019-06-10T00:01:21.316Z,96.11
2019-06-10T00:03:51.713Z,96.92
2019-06-10T00:06:21.102Z,97.24
2019-06-10T00:08:50.701Z,99.45
2019-06-10T00:11:21.323Z,100.00
2019-06-10T00:13:50.796Z,99.71
2019-06-10T00:16:20.832Z,100.00
2019-06-10T00:18:51.059Z,100.00
2019-06-10T00:21:21.735Z,99.46
2019-06-10T00:23:51.766Z,99.76
2019-06-10T00:26:21.601Z,100.00
2019-06-10T00:28:51.444Z,100.00
2019-06-10T00:31:20.846Z,100.00
2019-06-10T00:33:51.991Z,100.00
2019-06-10T00:36:21.576Z,99.65
2019-06-10T00:38:51.832Z,100.00
2019-06-10T00:41:21.879Z,100.00
2019-06-10T00:43:51.788Z,100.00
2019-06-10T00:46:21.296Z,100.00
2019-06-10T00:48:51.011Z,100.00
2019-06-10T00:51:20.994Z,100.00
2019-06-10T00:53:51.396Z,100.00
2019-06-10T00:56:21.700Z,100.00
2019-06-10T00:58:51.369Z,100.00
2019-06-10T01:01:21.932Z,100.00
2019-06-10T01:03:51.221Z,100.00
2019-06-10T01:06:21.309Z,100.00
2019-06-10T01:08:51.206Z,100.00
2019-06-10T01:11:26.677Z,100.00
2019-06-10T01:13:51.462Z,100.00
2019-06-10T01:16:21.703Z,100.00
2019-06-10T01:18:53.435Z,100.00
2019-06-10T01:21:22.061Z,100.00
2019-06-10T01:23:51.330Z,100.00
2019-06-10T01:26:21.594Z,100.00
2019-06-10T01:28:51.691Z,100.00
2019-06-10T01:31:24.226Z,100.00
2019-06-10T01:33:53.031Z,100.00
2019-06-10T01:36:22.246Z,100.00
2019-06-10T01:38:51.433Z,100.00
2019-06-10T01:41:21.446Z,100.00
2019-06-10T01:43:51.288Z,100.00
2019-06-10T01:46:21.108Z,100.00
2019-06-10T01:48:52.067Z,100.00
2019-06-10T01:51:21.638Z,100.00
2019-06-10T01:53:51.436Z,100.00
2019-06-10T01:56:21.505Z,100.00
2019-06-10T01:58:51.416Z,100.00
2019-06-10T02:01:30.703Z,100.00
2019-06-10T02:04:00.883Z,100.00
2019-06-10T02:06:31.627Z,100.00
2019-06-10T02:09:07.278Z,100.00
2019-06-10T02:11:37.420Z,100.00
2019-06-10T02:14:07.081Z,100.00
2019-06-10T02:16:36.420Z,100.00
2019-06-10T02:19:05.800Z,100.00
2019-06-10T02:21:34.923Z,100.00
2019-06-10T02:24:04.165Z,100.00
2019-06-10T02:26:33.278Z,100.00
2019-06-10T02:29:02.471Z,100.00
2019-06-10T02:31:37.255Z,100.00
2019-06-10T02:34:02.832Z,100.00
2019-06-10T02:36:36.591Z,100.00
2019-06-10T02:39:04.640Z,100.00
2019-06-10T02:41:36.333Z,100.00
2019-06-10T02:44:04.958Z,100.00
2019-06-10T02:46:36.167Z,100.00
2019-06-10T02:49:20.538Z,100.00
2019-06-10T02:51:36.165Z,100.00
2019-06-10T02:54:05.347Z,100.00
2019-06-10T02:56:36.496Z,100.00
2019-06-10T02:59:05.439Z,100.00
2019-06-10T03:01:38.122Z,100.00
2019-06-10T03:04:05.494Z,100.00
2019-06-10T03:06:39.302Z,100.00
2019-06-10T03:09:06.308Z,100.00
2019-06-10T03:11:37.063Z,100.00
2019-06-10T03:14:06.361Z,100.00
2019-06-10T03:16:42.302Z,100.00
2019-06-10T03:19:13.311Z,100.00
2019-06-10T03:21:42.923Z,100.00
2019-06-10T03:24:13.213Z,100.00
2019-06-10T03:26:42.839Z,100.00
2019-06-10T03:29:12.915Z,100.00
2019-06-10T03:31:47.645Z,100.00
2019-06-10T03:34:14.873Z,100.00
2019-06-10T03:36:43.958Z,100.00
2019-06-10T03:39:13.406Z,100.00
2019-06-10T03:41:42.577Z,100.00
2019-06-10T03:44:13.193Z,100.00
2019-06-10T03:46:43.124Z,100.00
2019-06-10T03:49:12.767Z,100.00
2019-06-10T03:51:42.858Z,100.00
2019-06-10T03:54:13.082Z,100.00
2019-06-10T03:56:43.096Z,100.00
2019-06-10T03:59:12.474Z,100.00
2019-06-10T04:01:42.598Z,100.00
2019-06-10T04:04:13.015Z,100.00
2019-06-10T04:06:44.205Z,100.00
2019-06-10T04:09:13.311Z,100.00
2019-06-10T04:11:43.290Z,100.00
2019-06-10T04:14:13.097Z,100.00
2019-06-10T04:16:43.316Z,100.00
2019-06-10T04:19:13.124Z,100.00
2019-06-10T04:21:43.311Z,100.00
2019-06-10T04:24:12.941Z,100.00
2019-06-10T04:26:43.452Z,100.00
2019-06-10T04:29:13.048Z,100.00
2019-06-10T04:31:42.586Z,100.00
2019-06-10T04:34:12.580Z,100.00
2019-06-10T04:36:42.374Z,100.00
2019-06-10T04:39:12.494Z,100.00
2019-06-10T04:41:42.669Z,100.00
2019-06-10T04:44:13.148Z,100.00
2019-06-10T04:46:42.881Z,100.00
2019-06-10T04:49:13.108Z,100.00
2019-06-10T04:51:43.429Z,100.00
2019-06-10T04:54:13.504Z,100.00
2019-06-10T04:56:43.066Z,100.00
2019-06-10T04:59:12.678Z,100.00
2019-06-10T05:01:42.615Z,100.00
2019-06-10T05:04:12.559Z,100.00
2019-06-10T05:06:42.321Z,100.00
2019-06-10T05:09:12.427Z,100.00
2019-06-10T05:11:43.028Z,100.00
2019-06-10T05:14:13.210Z,99.55
2019-06-10T05:16:43.410Z,100.00
2019-06-10T05:19:12.979Z,100.00
2019-06-10T05:21:42.562Z,100.00
2019-06-10T05:24:12.484Z,99.10
2019-06-10T05:26:42.490Z,98.28
2019-06-10T05:29:12.221Z,97.53
2019-06-10T05:31:43.576Z,96.89
2019-06-10T05:34:13.150Z,97.47
2019-06-10T05:36:43.566Z,98.53
2019-06-10T05:39:13.033Z,99.49
2019-06-10T05:41:43.250Z,100.00
2019-06-10T05:44:13.491Z,100.00
2019-06-10T05:46:43.725Z,100.00
2019-06-10T05:49:13.347Z,100.00
2019-06-10T05:51:42.613Z,100.00
2019-06-10T05:54:12.864Z,100.00
2019-06-10T05:56:43.241Z,100.00
2019-06-10T05:59:12.866Z,100.00
2019-06-10T06:01:43.206Z,100.00
2019-06-10T06:04:12.879Z,100.00
2019-06-10T06:06:44.926Z,100.00
2019-06-10T06:09:13.151Z,99.93
2019-06-10T06:11:43.094Z,99.67
2019-06-10T06:14:13.328Z,99.66
2019-06-10T06:16:43.499Z,98.99
2019-06-10T06:19:12.834Z,98.08
2019-06-10T06:21:47.459Z,97.92
2019-06-10T06:24:14.161Z,98.96
2019-06-10T06:26:43.524Z,99.38
2019-06-10T06:29:13.088Z,100.00
2019-06-10T06:31:43.054Z,99.94
2019-06-10T06:34:13.869Z,100.00
2019-06-10T06:36:43.236Z,100.00
2019-06-10T06:39:12.990Z,100.00
2019-06-10T06:41:42.852Z,100.00
2019-06-10T06:44:13.035Z,100.00
2019-06-10T06:46:43.106Z,100.00
2019-06-10T06:49:12.891Z,99.63
2019-06-10T06:51:53.941Z,98.83
2019-06-10T06:54:13.149Z,98.65
2019-06-10T06:56:43.699Z,98.74
2019-06-10T06:59:13.433Z,99.23
2019-06-10T07:01:44.248Z,98.33
2019-06-10T07:04:13.783Z,97.16
2019-06-10T07:06:43.525Z,99.07
2019-06-10T07:09:13.483Z,100.00
2019-06-10T07:11:45.258Z,100.00
2019-06-10T07:14:14.750Z,100.00
2019-06-10T07:16:46.329Z,100.00
2019-06-10T07:19:14.784Z,100.00
2019-06-10T07:22:02.348Z,100.00
2019-06-10T07:24:14.803Z,100.00
2019-06-10T07:26:50.883Z,98.76
2019-06-10T07:29:14.850Z,96.76
2019-06-10T07:31:46.707Z,93.43
2019-06-10T07:34:14.881Z,93.09
2019-06-10T07:36:45.493Z,92.76
2019-06-10T07:39:14.778Z,91.68
2019-06-10T07:41:47.409Z,91.53
2019-06-10T07:44:14.990Z,88.94
2019-06-10T07:46:45.723Z,85.50
2019-06-10T07:49:14.925Z,84.88
2019-06-10T07:51:46.306Z,83.74
2019-06-10T07:54:15.310Z,81.71
2019-06-10T07:56:50.454Z,78.42
2019-06-10T07:59:15.466Z,74.28
2019-06-10T08:01:50.970Z,74.11
2019-06-10T08:04:15.490Z,75.21
2019-06-10T08:06:45.893Z,74.92
2019-06-10T08:09:15.028Z,76.75
2019-06-10T08:11:46.829Z,76.89
2019-06-10T08:14:15.092Z,77.94
2019-06-10T08:16:46.668Z,80.23
2019-06-10T08:19:30.034Z,83.70
2019-06-10T08:21:49.207Z,82.28
2019-06-10T08:24:17.833Z,84.21
2019-06-10T08:26:47.775Z,82.67
2019-06-10T08:29:16.971Z,83.50
2019-06-10T08:31:48.441Z,85.31
2019-06-10T08:34:17.032Z,86.10
2019-06-10T08:36:50.106Z,86.64
2019-06-10T08:39:17.041Z,87.52
2019-06-10T08:41:49.054Z,85.37
2019-06-10T08:44:17.143Z,86.14
2019-06-10T08:46:47.244Z,86.66
2019-06-10T08:49:17.297Z,84.96
2019-06-10T08:51:48.866Z,81.23
2019-06-10T08:54:17.320Z,81.40
2019-06-10T08:56:50.321Z,77.66
2019-06-10T08:59:17.355Z,75.61
2019-06-10T09:01:51.461Z,77.14
2019-06-10T09:04:17.705Z,76.25
2019-06-10T09:06:50.358Z,77.50
2019-06-10T09:09:17.692Z,72.94
2019-06-10T09:11:49.679Z,67.91
2019-06-10T09:14:17.988Z,66.44
2019-06-10T09:16:48.963Z,66.11
2019-06-10T09:19:18.003Z,67.21
2019-06-10T09:21:51.094Z,69.21
2019-06-10T09:24:18.006Z,68.82
2019-06-10T09:26:50.147Z,68.60
2019-06-10T09:29:18.078Z,72.14
2019-06-10T09:31:51.302Z,71.52
2019-06-10T09:34:18.179Z,72.59
2019-06-10T09:36:50.163Z,73.56
2019-06-10T09:39:18.174Z,73.05
2019-06-10T09:41:54.120Z,73.67
2019-06-10T09:44:18.177Z,75.03
2019-06-10T09:46:53.708Z,76.54
2019-06-10T09:49:22.875Z,75.82
2019-06-10T09:51:56.364Z,77.64
2019-06-10T09:54:23.335Z,77.63
2019-06-10T09:56:54.684Z,76.11
2019-06-10T09:59:23.618Z,77.61
2019-06-10T10:01:58.725Z,75.71
2019-06-10T10:04:23.800Z,74.79
2019-06-10T10:06:57.202Z,77.73
2019-06-10T10:09:24.468Z,79.36
2019-06-10T10:11:55.310Z,77.87
2019-06-10T10:14:24.570Z,78.25
2019-06-10T10:16:59.906Z,82.33
2019-06-10T10:19:24.791Z,84.20
2019-06-10T10:21:58.211Z,84.61
2019-06-10T10:24:24.921Z,87.18
2019-06-10T10:26:57.534Z,90.32
2019-06-10T10:29:25.143Z,90.04
2019-06-10T10:31:54.288Z,88.82
2019-06-10T10:34:23.761Z,88.45
2019-06-10T10:36:56.763Z,87.98
2019-06-10T10:39:24.629Z,85.31
2019-06-10T10:41:56.600Z,84.40
2019-06-10T10:44:24.776Z,82.38
2019-06-10T10:46:55.753Z,80.82
2019-06-10T10:49:25.027Z,80.22
2019-06-10T10:51:54.165Z,79.91
2019-06-10T10:54:32.982Z,79.42
2019-06-10T10:56:58.663Z,77.67
2019-06-10T10:59:25.157Z,74.02
2019-06-10T11:01:54.366Z,71.61
2019-06-10T11:04:23.551Z,68.22
2019-06-10T11:06:55.637Z,65.70
2019-06-10T11:09:26.276Z,64.18
2019-06-10T11:11:58.964Z,64.61
2019-06-10T11:14:29.396Z,61.95
2019-06-10T11:16:58.978Z,61.10
2019-06-10T11:19:28.290Z,60.40
2019-06-10T11:21:57.898Z,61.79
2019-06-10T11:24:36.648Z,61.08
2019-06-10T11:26:58.449Z,61.99
2019-06-10T11:29:27.679Z,62.97
2019-06-10T11:31:58.615Z,63.78
2019-06-10T11:34:27.751Z,64.52
2019-06-10T11:36:58.207Z,63.53
2019-06-10T11:39:27.511Z,62.24
2019-06-10T11:41:57.723Z,62.58
2019-06-10T11:44:26.991Z,64.94
2019-06-10T11:46:58.140Z,67.89
2019-06-10T11:49:27.044Z,69.33
2019-06-10T11:51:57.956Z,70.60
2019-06-10T11:54:27.088Z,70.46
2019-06-10T11:56:58.065Z,68.19
2019-06-10T11:59:27.137Z,66.80
2019-06-10T12:01:59.932Z,66.70
2019-06-10T12:04:27.229Z,62.87
2019-06-10T12:06:57.063Z,60.54
2019-06-10T12:09:26.317Z,55.37
2019-06-10T12:12:01.391Z,57.50
2019-06-10T12:14:27.211Z,56.11
2019-06-10T12:19:27.383Z,59.00
2019-06-10T12:22:01.390Z,61.21
2019-06-10T12:24:27.425Z,62.80
2019-06-10T12:26:59.560Z,62.72
2019-06-10T12:29:27.515Z,62.79
2019-06-10T12:32:00.147Z,62.30
2019-06-10T12:34:27.562Z,61.32
2019-06-10T12:37:03.555Z,62.53
2019-06-10T12:39:27.558Z,64.31
2019-06-10T12:41:58.378Z,66.74
2019-06-10T12:44:27.590Z,67.51
2019-06-10T12:47:00.886Z,68.97
2019-06-10T12:49:28.953Z,68.90
2019-06-10T12:51:59.172Z,67.44
2019-06-10T12:54:28.459Z,67.65
2019-06-10T12:56:58.065Z,69.01
2019-06-10T12:59:27.221Z,69.15
2019-06-10T13:01:58.065Z,72.76
2019-06-10T13:04:27.489Z,73.84
2019-06-10T13:07:00.200Z,74.05
2019-06-10T13:09:32.563Z,74.63
2019-06-10T13:12:02.111Z,74.21
2019-06-10T13:14:32.621Z,74.17
2019-06-10T13:17:03.020Z,75.76
2019-06-10T13:19:34.362Z,76.18
2019-06-10T13:22:05.723Z,74.90
2019-06-10T13:24:34.695Z,76.39
2019-06-10T13:27:06.374Z,75.61
2019-06-10T13:29:34.803Z,77.10
2019-06-10T13:32:06.086Z,76.78
2019-06-10T13:34:34.907Z,75.35
2019-06-10T13:37:06.782Z,76.27
2019-06-10T13:39:34.983Z,73.22
2019-06-10T13:42:07.713Z,71.71
2019-06-10T13:44:35.082Z,73.18
2019-06-10T13:47:07.012Z,74.17
2019-06-10T13:49:35.281Z,73.04
2019-06-10T13:52:09.127Z,74.05
2019-06-10T13:54:35.492Z,72.35
2019-06-10T13:57:06.891Z,73.37
2019-06-10T13:59:35.525Z,73.50
2019-06-10T14:02:08.124Z,75.81
2019-06-10T14:04:35.655Z,73.71
2019-06-10T14:07:08.658Z,74.37
2019-06-10T14:09:35.712Z,76.01
2019-06-10T14:12:05.920Z,75.37
2019-06-10T14:14:34.999Z,74.17
2019-06-10T14:17:05.625Z,72.18
2019-06-10T14:19:34.861Z,72.22
2019-06-10T14:22:06.428Z,72.44
2019-06-10T14:24:35.028Z,72.37
2019-06-10T14:27:06.811Z,73.28
2019-06-10T14:29:35.108Z,73.81
2019-06-10T14:32:05.710Z,74.70
2019-06-10T14:34:34.943Z,74.37
2019-06-10T14:37:04.102Z,74.72
2019-06-10T14:39:33.289Z,75.28
2019-06-10T14:42:04.900Z,74.08
2019-06-10T14:44:33.249Z,74.47
2019-06-10T14:47:03.014Z,73.88
2019-06-10T14:49:33.026Z,74.10
2019-06-10T14:52:02.791Z,74.29
2019-06-10T14:54:32.287Z,76.03
2019-06-10T14:57:02.691Z,76.82
2019-06-10T14:59:31.935Z,77.77
2019-06-10T15:02:02.800Z,78.25
2019-06-10T15:04:33.219Z,76.73
2019-06-10T15:07:03.566Z,74.44
2019-06-10T15:09:33.540Z,74.39
2019-06-10T15:12:02.992Z,71.49
2019-06-10T15:14:32.468Z,71.93
2019-06-10T15:17:02.751Z,72.41
2019-06-10T15:19:33.235Z,74.92
2019-06-10T15:22:03.023Z,74.66
2019-06-10T15:24:33.469Z,74.79
2019-06-10T15:27:13.112Z,73.00
2019-06-10T15:29:33.597Z,73.03
2019-06-10T15:32:14.056Z,71.49
2019-06-10T15:34:33.727Z,71.82
2019-06-10T15:37:03.005Z,72.31
2019-06-10T15:39:33.340Z,72.66
2019-06-10T15:42:03.142Z,73.00
2019-06-10T15:44:52.309Z,74.24
2019-06-10T15:47:03.354Z,73.86
2019-06-10T15:49:32.818Z,74.07
2019-06-10T15:52:03.305Z,74.35
2019-06-10T15:54:33.342Z,73.56
2019-06-10T15:57:03.274Z,73.19
2019-06-10T15:59:32.722Z,72.50
2019-06-10T16:02:02.542Z,73.58
2019-06-10T16:04:35.069Z,74.57
2019-06-10T16:07:03.094Z,74.94
2019-06-10T16:09:32.301Z,75.54
2019-06-10T16:12:02.922Z,76.91
2019-06-10T16:14:33.260Z,75.82
2019-06-10T16:17:03.145Z,76.62
2019-06-10T16:19:32.946Z,77.73
2019-06-10T16:22:03.185Z,77.85
2019-06-10T16:24:33.260Z,78.47
2019-06-10T16:27:03.406Z,79.50
2019-06-10T16:29:33.404Z,81.01
2019-06-10T16:32:02.824Z,82.07
2019-06-10T16:34:32.561Z,83.74
2019-06-10T16:37:02.350Z,84.31
2019-06-10T16:39:32.568Z,84.66
2019-06-10T16:42:02.977Z,84.65
2019-06-10T16:44:32.967Z,85.56
2019-06-10T16:47:03.192Z,86.70
2019-06-10T16:49:32.908Z,86.61
2019-06-10T16:52:02.898Z,85.27
2019-06-10T16:54:32.982Z,85.88
2019-06-10T16:57:03.856Z,86.03
2019-06-10T16:59:33.098Z,85.16
2019-06-10T17:02:02.423Z,85.74
2019-06-10T17:04:33.120Z,85.75
2019-06-10T17:07:02.577Z,86.83
2019-06-10T17:09:32.799Z,90.08
2019-06-10T17:12:02.422Z,93.19
2019-06-10T17:14:33.532Z,94.26
2019-06-10T17:17:03.588Z,94.98
2019-06-10T17:19:33.505Z,95.74
2019-06-10T17:22:02.720Z,96.40
2019-06-10T17:24:33.850Z,97.13
2019-06-10T17:27:02.888Z,96.75
2019-06-10T17:29:33.463Z,98.03
2019-06-10T17:32:02.986Z,98.48
2019-06-10T17:34:33.952Z,98.11
2019-06-10T17:37:03.260Z,97.54
2019-06-10T17:39:34.552Z,96.96
2019-06-10T17:42:03.361Z,97.33
2019-06-10T17:44:32.615Z,98.44
2019-06-10T17:47:02.338Z,98.63
2019-06-10T17:49:34.421Z,97.20
2019-06-10T17:52:02.721Z,97.59
2019-06-10T17:54:32.451Z,96.77
2019-06-10T17:57:02.500Z,96.72
2019-06-10T17:59:34.041Z,96.64
2019-06-10T18:02:03.094Z,97.71
2019-06-10T18:04:33.615Z,97.35
2019-06-10T18:07:02.911Z,98.08
2019-06-10T18:09:34.704Z,98.71
2019-06-10T18:12:02.935Z,99.22
2019-06-10T18:14:33.312Z,98.99
2019-06-10T18:17:03.153Z,99.16
2019-06-10T18:19:36.791Z,99.13
2019-06-10T18:22:03.220Z,99.63
2019-06-10T18:24:33.056Z,100.00
2019-06-10T18:27:02.401Z,100.00
2019-06-10T18:29:34.092Z,100.00
2019-06-10T18:32:03.460Z,100.00
2019-06-10T18:34:36.293Z,100.00
2019-06-10T18:37:03.854Z,100.00
2019-06-10T18:39:33.568Z,100.00
2019-06-10T18:42:03.425Z,100.00
2019-06-10T18:44:35.385Z,100.00
2019-06-10T18:47:03.601Z,100.00
2019-06-10T18:49:35.555Z,100.00
2019-06-10T18:52:03.845Z,100.00
2019-06-10T18:54:35.614Z,100.00
2019-06-10T18:57:04.022Z,100.00
2019-06-10T18:59:36.082Z,100.00
2019-06-10T19:02:06.367Z,100.00
2019-06-10T19:04:38.368Z,100.00
2019-06-10T19:07:07.648Z,100.00
2019-06-10T19:09:39.494Z,100.00
2019-06-10T19:12:07.921Z,100.00
2019-06-10T19:14:38.356Z,100.00
2019-06-10T19:17:07.636Z,100.00
2019-06-10T19:19:38.139Z,100.00
2019-06-10T19:22:09.361Z,100.00
2019-06-10T19:24:39.795Z,100.00
2019-06-10T19:27:09.245Z,100.00
2019-06-10T19:29:45.467Z,100.00
2019-06-10T19:32:09.443Z,100.00
2019-06-10T19:34:39.435Z,100.00
2019-06-10T19:37:08.699Z,100.00
2019-06-10T19:39:45.131Z,100.00
2019-06-10T19:42:09.443Z,100.00
2019-06-10T19:44:38.908Z,100.00
2019-06-10T19:47:08.337Z,100.00
2019-06-10T19:49:38.635Z,100.00
2019-06-10T19:52:07.832Z,100.00
2019-06-10T19:54:37.054Z,100.00
2019-06-10T19:57:06.418Z,100.00
2019-06-10T19:59:52.634Z,100.00
2019-06-10T20:02:08.659Z,100.00
2019-06-10T20:04:37.766Z,100.00
2019-06-10T20:07:06.954Z,100.00
2019-06-10T20:09:36.102Z,100.00
2019-06-10T20:12:05.436Z,100.00
2019-06-10T20:14:34.681Z,100.00
2019-06-10T20:17:04.049Z,100.00
2019-06-10T20:19:33.283Z,100.00
2019-06-10T20:22:02.494Z,100.00
2019-06-10T20:24:33.894Z,100.00
2019-06-10T20:27:03.172Z,100.00
2019-06-10T20:29:32.888Z,100.00
2019-06-10T20:32:02.108Z,100.00
2019-06-10T20:34:31.424Z,100.00
2019-06-10T20:37:02.455Z,100.00
2019-06-10T20:39:32.962Z,100.00
2019-06-10T20:42:02.876Z,100.00
2019-06-10T20:44:32.560Z,100.00
2019-06-10T20:47:01.797Z,100.00
2019-06-10T20:49:32.601Z,100.00
2019-06-10T20:52:10.914Z,100.00
2019-06-10T20:54:32.729Z,100.00
2019-06-10T20:57:04.081Z,100.00
2019-06-10T20:59:33.290Z,100.00
2019-06-10T21:02:03.183Z,100.00
2019-06-10T21:04:32.483Z,100.00
2019-06-10T21:07:02.859Z,100.00
2019-06-10T21:09:32.782Z,100.00
2019-06-10T21:12:02.204Z,100.00
2019-06-10T21:14:33.119Z,100.00
2019-06-10T21:17:03.015Z,100.00
2019-06-10T21:19:33.134Z,100.00
2019-06-10T21:22:02.841Z,100.00
2019-06-10T21:24:32.417Z,100.00
2019-06-10T21:27:01.547Z,100.00
2019-06-10T21:29:32.300Z,100.00
2019-06-10T21:32:03.541Z,100.00
2019-06-10T21:34:32.695Z,100.00
2019-06-10T21:37:03.278Z,100.00
2019-06-10T21:39:32.618Z,100.00
2019-06-10T21:42:02.436Z,100.00
2019-06-10T21:44:32.023Z,100.00
2019-06-10T21:47:02.462Z,100.00
2019-06-10T21:49:32.253Z,100.00
2019-06-10T21:52:02.916Z,100.00
2019-06-10T21:54:33.011Z,100.00
2019-06-10T21:57:02.755Z,100.00
2019-06-10T21:59:32.247Z,100.00
2019-06-10T22:02:02.283Z,100.00
2019-06-10T22:04:32.671Z,100.00
2019-06-10T22:07:03.202Z,100.00
2019-06-10T22:09:32.515Z,100.00
2019-06-10T22:12:02.865Z,100.00
2019-06-10T22:14:32.962Z,100.00
2019-06-10T22:17:03.045Z,100.00
2019-06-10T22:19:32.404Z,100.00
2019-06-10T22:22:02.768Z,100.00
2019-06-10T22:24:31.988Z,100.00
2019-06-10T22:27:02.727Z,100.00
2019-06-10T22:29:32.305Z,100.00
2019-06-10T22:32:02.624Z,100.00
2019-06-10T22:34:32.948Z,100.00
2019-06-10T22:37:03.196Z,100.00
2019-06-10T22:39:32.650Z,100.00
2019-06-10T22:42:03.019Z,100.00
2019-06-10T22:44:33.119Z,100.00
2019-06-10T22:47:02.920Z,100.00
2019-06-10T22:49:32.847Z,100.00
2019-06-10T22:52:02.118Z,100.00
2019-06-10T22:54:32.311Z,100.00
2019-06-10T22:57:02.866Z,100.00
2019-06-10T22:59:32.133Z,100.00
2019-06-10T23:02:03.062Z,100.00
2019-06-10T23:04:33.173Z,100.00
2019-06-10T23:07:03.180Z,100.00
2019-06-10T23:09:32.584Z,100.00
2019-06-10T23:12:02.930Z,100.00
2019-06-10T23:14:33.198Z,100.00
2019-06-10T23:17:03.175Z,100.00
2019-06-10T23:19:33.154Z,100.00
2019-06-10T23:22:03.006Z,100.00
2019-06-10T23:24:32.429Z,100.00
2019-06-10T23:27:03.369Z,100.00
2019-06-10T23:29:32.958Z,100.00
2019-06-10T23:32:06.827Z,100.00
2019-06-10T23:34:33.163Z,100.00
2019-06-10T23:37:02.377Z,100.00
2019-06-10T23:39:33.468Z,100.00
2019-06-10T23:42:04.280Z,100.00
2019-06-10T23:44:33.252Z,100.00
2019-06-10T23:47:03.838Z,100.00
2019-06-10T23:49:33.253Z,100.00
2019-06-10T23:52:04.887Z,100.00
2019-06-10T23:54:33.263Z,100.00
2019-06-10T23:57:05.444Z,100.00
2019-06-10T23:59:33.359Z,100.00
